Time;durP1;ratioP1;P1;durP2;ratioP2;P2;SDS_P1;SDS_P2;PMS_P1;PMS_P2;Temp;Humidity;BMP_temperature;BMP_pressure;BME280_temperature;BME280_humidity;BME280_pressure;Samples;Min_cycle;Max_cycle;Signal;HPM_P1;HPM_P2
2020/12/27 00:00:12;;;;;;;6.20;3.60;;;6.20;99.90;;;;;;5043272;28;20083;-61
2020/12/27 00:02:37;;;;;;;8.25;3.90;;;6.20;99.90;;;;;;5040471;28;20080;-61
2020/12/27 00:05:07;;;;;;;8.88;3.97;;;6.20;99.90;;;;;;5042413;28;20460;-61
2020/12/27 00:07:34;;;;;;;7.68;3.97;;;6.10;99.90;;;;;;5043413;28;20033;-62
2020/12/27 00:10:00;;;;;;;10.68;4.05;;;6.10;99.90;;;;;;5038458;28;20393;-60
2020/12/27 00:12:25;;;;;;;7.45;3.58;;;6.10;99.90;;;;;;5043686;28;20025;-61
2020/12/27 00:14:51;;;;;;;6.85;3.55;;;6.10;99.90;;;;;;5041499;28;20482;-61
2020/12/27 00:17:16;;;;;;;7.00;4.03;;;6.00;99.90;;;;;;5041740;28;20489;-61
2020/12/27 00:19:42;;;;;;;8.77;4.00;;;6.00;99.90;;;;;;5042146;28;20044;-63
2020/12/27 00:22:09;;;;;;;5.70;3.90;;;5.90;99.90;;;;;;5041458;28;20033;-60
2020/12/27 00:24:34;;;;;;;8.77;4.53;;;5.90;99.90;;;;;;5043734;28;20154;-61
2020/12/27 00:27:00;;;;;;;7.43;4.18;;;5.80;99.90;;;;;;5040517;28;20506;-61
2020/12/27 00:29:26;;;;;;;11.63;4.68;;;5.80;99.90;;;;;;5041976;28;20033;-61
2020/12/27 00:31:52;;;;;;;7.07;4.05;;;5.70;99.90;;;;;;5039904;28;20508;-62
2020/12/27 00:34:19;;;;;;;9.73;5.30;;;5.70;99.90;;;;;;5043800;28;20025;-62
2020/12/27 00:36:45;;;;;;;11.50;5.47;;;5.60;99.90;;;;;;5041532;28;20036;-62
2020/12/27 00:39:11;;;;;;;7.90;4.95;;;5.60;99.90;;;;;;5041524;28;20502;-62
2020/12/27 00:41:36;;;;;;;8.10;5.07;;;5.50;99.90;;;;;;5043156;28;20072;-62
2020/12/27 00:44:02;;;;;;;11.25;5.30;;;5.50;99.90;;;;;;5040072;28;20029;-60
2020/12/27 00:46:28;;;;;;;12.07;5.95;;;5.50;99.90;;;;;;5041274;28;20113;-60
2020/12/27 00:48:53;;;;;;;10.32;4.97;;;5.50;99.90;;;;;;5039750;28;20414;-60
2020/12/27 00:51:23;;;;;;;14.73;5.30;;;5.50;99.90;;;;;;5043695;28;20084;-62
2020/12/27 00:53:49;;;;;;;10.53;5.73;;;5.40;99.90;;;;;;5040581;28;20041;-61
2020/12/27 00:56:15;;;;;;;10.57;5.38;;;5.40;99.90;;;;;;5040533;28;20380;-60
2020/12/27 00:58:42;;;;;;;11.75;5.95;;;5.40;99.90;;;;;;5042658;28;20076;-60
2020/12/27 01:01:08;;;;;;;13.90;5.30;;;5.40;99.90;;;;;;5038562;28;20029;-60
2020/12/27 01:03:34;;;;;;;11.10;5.80;;;5.40;99.90;;;;;;5038941;28;20033;-61
2020/12/27 01:05:59;;;;;;;11.80;5.72;;;5.40;99.90;;;;;;5036827;28;20068;-60
2020/12/27 01:08:27;;;;;;;9.18;5.60;;;5.30;99.90;;;;;;5039743;28;20563;-60
2020/12/27 01:10:53;;;;;;;10.20;5.72;;;5.40;99.90;;;;;;5036602;28;20033;-60
2020/12/27 01:13:19;;;;;;;10.50;5.50;;;5.30;99.90;;;;;;5039325;28;20389;-61
2020/12/27 01:15:45;;;;;;;10.15;5.10;;;5.30;99.90;;;;;;5037401;28;20061;-61
2020/12/27 01:18:11;;;;;;;14.73;5.88;;;5.30;99.90;;;;;;5036665;28;20096;-60
2020/12/27 01:20:37;;;;;;;10.50;5.43;;;5.30;99.90;;;;;;5038517;28;20045;-61
2020/12/27 01:23:03;;;;;;;11.85;6.18;;;5.30;99.90;;;;;;5035718;28;20038;-61
2020/12/27 01:25:28;;;;;;;9.32;6.07;;;5.30;99.90;;;;;;5034530;28;20037;-61
2020/12/27 01:27:54;;;;;;;11.60;6.28;;;5.30;99.90;;;;;;5038179;28;20033;-61
2020/12/27 01:30:19;;;;;;;9.82;5.78;;;5.30;99.90;;;;;;5034220;28;20032;-60
2020/12/27 01:32:45;;;;;;;9.88;5.13;;;5.20;99.90;;;;;;5035669;28;20030;-61
2020/12/27 01:35:10;;;;;;;12.05;5.60;;;5.30;99.90;;;;;;5038499;28;20498;-62
2020/12/27 01:37:36;;;;;;;10.65;5.75;;;5.20;99.90;;;;;;5036356;28;20068;-60
2020/12/27 01:40:03;;;;;;;10.73;5.43;;;5.20;99.90;;;;;;5037048;28;20022;-62
2020/12/27 01:42:28;;;;;;;10.73;5.72;;;5.20;99.90;;;;;;5038497;28;20120;-61
2020/12/27 01:44:54;;;;;;;17.38;5.85;;;5.20;99.90;;;;;;5039250;28;20510;-61
2020/12/27 01:47:21;;;;;;;9.32;5.10;;;5.30;99.90;;;;;;5042786;28;20045;-60
2020/12/27 01:49:48;;;;;;;14.10;6.75;;;5.20;99.90;;;;;;5040088;28;20033;-61
2020/12/27 01:52:13;;;;;;;10.68;5.60;;;5.10;99.90;;;;;;5042472;28;20037;-61
2020/12/27 01:54:39;;;;;;;12.25;5.80;;;5.20;99.90;;;;;;5041151;28;20374;-61
2020/12/27 01:57:13;;;;;;;8.57;5.20;;;5.10;99.90;;;;;;5041031;28;20374;-62
2020/12/27 01:59:39;;;;;;;11.18;5.53;;;5.10;99.90;;;;;;5040576;28;20052;-59
2020/12/27 02:02:06;;;;;;;14.73;5.38;;;5.10;99.90;;;;;;5041106;28;20374;-61
2020/12/27 02:04:33;;;;;;;10.57;4.93;;;5.10;99.90;;;;;;5041737;28;20049;-60
2020/12/27 02:06:59;;;;;;;9.40;5.10;;;5.10;99.90;;;;;;5040658;28;20386;-61
2020/12/27 02:09:25;;;;;;;9.32;5.03;;;5.10;99.90;;;;;;5041974;28;20029;-61
2020/12/27 02:12:07;;;;;;;7.95;4.00;;;5.10;99.90;;;;;;5039459;28;20129;-62
2020/12/27 02:14:32;;;;;;;8.68;4.63;;;5.10;99.90;;;;;;5041117;28;20041;-61
2020/12/27 02:16:58;;;;;;;6.53;3.85;;;5.10;99.90;;;;;;5042013;28;20037;-63
2020/12/27 02:19:24;;;;;;;9.65;4.68;;;5.10;99.90;;;;;;5039365;28;20438;-62
2020/12/27 02:21:50;;;;;;;8.68;4.07;;;5.10;99.90;;;;;;5043436;28;20405;-62
2020/12/27 02:24:15;;;;;;;9.55;4.45;;;5.10;99.90;;;;;;5038468;28;20116;-62
2020/12/27 02:26:56;;;;;;;8.98;4.25;;;5.10;99.90;;;;;;5042711;28;20037;-61
2020/12/27 02:29:21;;;;;;;7.82;3.65;;;5.10;99.90;;;;;;5038831;28;20030;-61
2020/12/27 02:31:47;;;;;;;7.55;3.72;;;5.10;99.90;;;;;;5041529;28;20052;-60
2020/12/27 02:34:12;;;;;;;10.65;4.03;;;5.10;99.90;;;;;;5039048;28;20386;-61
2020/12/27 02:36:38;;;;;;;8.95;3.60;;;5.10;99.90;;;;;;5041475;28;20183;-61
2020/12/27 02:39:10;;;;;;;7.07;3.30;;;5.10;99.90;;;;;;5040761;28;20041;-60
2020/12/27 02:41:37;;;;;;;8.43;3.72;;;5.20;99.90;;;;;;5040652;28;20042;-60
2020/12/27 02:44:03;;;;;;;6.82;3.60;;;5.20;99.90;;;;;;5040572;28;20485;-60
2020/12/27 02:46:28;;;;;;;7.47;3.55;;;5.20;99.90;;;;;;5039718;28;20034;-60
2020/12/27 02:48:54;;;;;;;6.43;3.15;;;5.20;99.90;;;;;;5041413;28;20494;-60
2020/12/27 02:51:20;;;;;;;7.22;3.97;;;5.20;99.90;;;;;;5037139;28;20033;-60
2020/12/27 02:53:48;;;;;;;9.18;3.38;;;5.10;99.90;;;;;;5041927;28;20033;-60
2020/12/27 02:56:15;;;;;;;9.60;3.50;;;5.10;99.90;;;;;;5038855;28;20091;-61
2020/12/27 02:58:41;;;;;;;8.45;3.28;;;5.10;99.90;;;;;;5040739;28;20029;-61
2020/12/27 03:01:06;;;;;;;5.95;3.33;;;5.10;99.90;;;;;;5039409;28;20505;-60
2020/12/27 03:03:32;;;;;;;4.88;2.88;;;5.10;99.90;;;;;;5040039;28;20057;-59
2020/12/27 03:05:57;;;;;;;5.90;3.38;;;5.00;99.90;;;;;;5040313;28;20041;-61
2020/12/27 03:08:23;;;;;;;13.00;3.97;;;5.00;99.90;;;;;;5038827;28;20056;-61
2020/12/27 03:10:48;;;;;;;8.15;3.85;;;5.00;99.90;;;;;;5041913;28;20478;-62
2020/12/27 03:13:14;;;;;;;5.07;2.60;;;5.10;99.90;;;;;;5038735;28;20037;-62
2020/12/27 03:15:39;;;;;;;7.63;2.88;;;5.10;99.90;;;;;;5038254;28;20025;-61
2020/12/27 03:18:05;;;;;;;5.53;3.30;;;5.10;99.90;;;;;;5040617;28;20094;-60
2020/12/27 03:20:30;;;;;;;6.03;2.70;;;5.10;99.90;;;;;;5039528;28;20033;-61
2020/12/27 03:22:56;;;;;;;4.85;2.42;;;5.10;99.90;;;;;;5039566;28;20068;-62
2020/12/27 03:25:22;;;;;;;5.05;2.33;;;5.10;99.90;;;;;;5040388;28;20060;-60
2020/12/27 03:27:47;;;;;;;5.30;2.85;;;5.00;99.90;;;;;;5038615;28;20116;-60
2020/12/27 03:30:13;;;;;;;4.57;2.85;;;5.00;99.90;;;;;;5041649;28;20021;-62
2020/12/27 03:32:38;;;;;;;7.03;2.55;;;5.00;99.90;;;;;;5039735;28;20439;-61
2020/12/27 03:35:04;;;;;;;3.45;2.15;;;5.00;99.90;;;;;;5037294;28;20078;-60
2020/12/27 03:37:31;;;;;;;4.22;2.42;;;5.00;99.90;;;;;;5037707;28;20038;-62
2020/12/27 03:39:57;;;;;;;5.10;2.65;;;5.10;99.90;;;;;;5039885;28;20135;-62
2020/12/27 03:42:23;;;;;;;3.95;2.10;;;5.10;99.90;;;;;;5038752;28;20034;-61
2020/12/27 03:44:49;;;;;;;3.78;2.08;;;5.10;99.90;;;;;;5040870;28;20436;-61
2020/12/27 03:47:15;;;;;;;4.93;2.75;;;5.10;99.90;;;;;;5041145;28;20025;-61
2020/12/27 03:49:41;;;;;;;5.60;2.67;;;5.00;99.90;;;;;;5037138;28;20094;-62
2020/12/27 03:52:06;;;;;;;8.07;2.83;;;5.00;99.90;;;;;;5039385;28;20045;-61
2020/12/27 03:54:32;;;;;;;5.57;2.58;;;5.10;99.90;;;;;;5038180;28;20033;-61
2020/12/27 03:56:57;;;;;;;3.20;1.90;;;5.10;99.90;;;;;;5039555;28;20045;-62
2020/12/27 03:59:23;;;;;;;4.28;2.05;;;5.10;99.90;;;;;;5039736;28;20040;-61
2020/12/27 04:01:49;;;;;;;3.55;2.17;;;5.10;99.90;;;;;;5036292;28;20497;-62
2020/12/27 04:04:14;;;;;;;3.42;1.90;;;5.10;99.90;;;;;;5039483;28;20127;-61
2020/12/27 04:06:40;;;;;;;5.93;2.22;;;5.10;99.90;;;;;;5036318;28;20033;-60
2020/12/27 04:09:05;;;;;;;4.38;2.22;;;5.10;99.90;;;;;;5040089;28;20032;-59
2020/12/27 04:11:31;;;;;;;6.72;2.63;;;5.10;99.90;;;;;;5037923;28;20033;-62
2020/12/27 04:13:56;;;;;;;4.65;1.80;;;5.10;99.90;;;;;;5038945;28;20041;-61
2020/12/27 04:16:22;;;;;;;4.35;2.22;;;5.10;99.90;;;;;;5040783;28;20029;-63
2020/12/27 04:18:47;;;;;;;4.80;1.80;;;5.10;99.90;;;;;;5039193;28;20063;-60
2020/12/27 04:21:13;;;;;;;6.70;1.98;;;5.20;99.90;;;;;;5035902;28;20072;-60
2020/12/27 04:23:39;;;;;;;6.90;1.98;;;5.20;99.90;;;;;;5040094;28;20543;-61
2020/12/27 04:26:04;;;;;;;2.60;1.73;;;5.20;99.90;;;;;;5037543;28;20039;-61
2020/12/27 04:28:30;;;;;;;4.25;1.83;;;5.20;99.90;;;;;;5039100;28;20485;-59
2020/12/27 04:30:55;;;;;;;5.07;1.70;;;5.20;99.90;;;;;;5038484;28;20534;-61
2020/12/27 04:33:21;;;;;;;5.60;1.50;;;5.20;99.90;;;;;;5041310;28;20119;-61
2020/12/27 04:35:46;;;;;;;3.13;1.55;;;5.20;99.90;;;;;;5036529;28;20161;-59
2020/12/27 04:38:12;;;;;;;1.80;1.10;;;5.20;99.90;;;;;;5040109;28;20243;-61
2020/12/27 04:40:42;;;;;;;2.08;1.20;;;5.20;99.90;;;;;;5036443;28;20175;-61
2020/12/27 04:43:07;;;;;;;2.03;1.27;;;5.20;99.90;;;;;;5039331;28;20377;-61
2020/12/27 04:45:34;;;;;;;2.53;1.48;;;5.20;99.90;;;;;;5035873;28;20418;-61
2020/12/27 04:47:59;;;;;;;3.47;1.30;;;5.20;99.90;;;;;;5038486;28;20290;-60
2020/12/27 04:50:26;;;;;;;3.08;1.38;;;5.30;99.90;;;;;;5038345;28;20032;-60
2020/12/27 04:52:52;;;;;;;4.18;1.35;;;5.20;99.90;;;;;;5037390;28;20030;-61
2020/12/27 04:55:18;;;;;;;2.80;1.45;;;5.20;99.90;;;;;;5039137;28;20029;-61
2020/12/27 04:57:47;;;;;;;1.58;0.75;;;5.20;99.90;;;;;;5036442;28;20033;-60
2020/12/27 05:00:13;;;;;;;2.22;1.13;;;5.20;99.90;;;;;;5038415;28;20477;-61
2020/12/27 05:02:38;;;;;;;2.70;1.00;;;5.20;99.90;;;;;;5035237;28;20029;-61
2020/12/27 05:05:12;;;;;;;2.20;1.08;;;5.20;99.90;;;;;;5039389;28;20055;-60
2020/12/27 05:07:41;;;;;;;3.10;1.23;;;5.20;99.90;;;;;;5036580;28;20026;-61
2020/12/27 05:10:07;;;;;;;1.63;0.90;;;5.20;99.90;;;;;;5036170;28;20045;-60
2020/12/27 05:12:32;;;;;;;1.70;0.80;;;5.30;99.90;;;;;;5039594;28;20029;-60
2020/12/27 05:14:58;;;;;;;1.67;0.80;;;5.30;99.90;;;;;;5037133;28;20514;-61
2020/12/27 05:17:24;;;;;;;1.38;0.65;;;5.20;99.90;;;;;;5038237;28;20082;-61
2020/12/27 05:19:49;;;;;;;2.45;1.00;;;5.30;99.90;;;;;;5039484;28;20044;-61
2020/12/27 05:22:15;;;;;;;2.25;0.70;;;5.30;99.90;;;;;;5041552;28;20029;-62
2020/12/27 05:24:41;;;;;;;4.65;0.80;;;5.30;99.90;;;;;;5044095;28;20398;-60
2020/12/27 05:27:14;;;;;;;2.17;0.43;;;5.30;99.90;;;;;;5040067;28;20398;-61
2020/12/27 05:29:42;;;;;;;1.27;0.50;;;5.30;99.90;;;;;;5040226;28;20505;-61
2020/12/27 05:32:09;;;;;;;1.13;0.75;;;5.30;99.90;;;;;;5043150;28;20052;-60
2020/12/27 05:34:35;;;;;;;1.33;0.60;;;5.30;99.90;;;;;;5040167;28;20116;-60
2020/12/27 05:37:03;;;;;;;1.05;0.40;;;5.30;99.90;;;;;;5042553;28;20116;-62
2020/12/27 05:39:29;;;;;;;1.83;0.45;;;5.30;99.90;;;;;;5040781;28;20439;-63
2020/12/27 05:42:05;;;;;;;1.35;0.28;;;5.30;99.90;;;;;;5041760;28;20045;-61
2020/12/27 05:44:32;;;;;;;1.00;0.38;;;5.30;99.90;;;;;;5040801;28;20045;-60
2020/12/27 05:46:58;;;;;;;1.02;0.52;;;5.30;99.90;;;;;;5042201;28;20409;-61
2020/12/27 05:49:25;;;;;;;2.67;0.45;;;5.30;99.90;;;;;;5039899;28;20029;-61
2020/12/27 05:51:53;;;;;;;1.63;0.28;;;5.30;99.90;;;;;;5040845;28;20041;-61
2020/12/27 05:54:30;;;;;;;1.33;0.40;;;5.30;99.90;;;;;;5041922;28;20370;-61
2020/12/27 05:56:58;;;;;;;0.43;0.10;;;5.30;99.90;;;;;;5040291;28;20057;-61
2020/12/27 05:59:34;;;;;;;0.68;0.25;;;5.30;99.90;;;;;;5040921;28;20069;-61
2020/12/27 06:02:01;;;;;;;6.25;0.40;;;5.30;99.90;;;;;;5042426;28;20028;-60
2020/12/27 06:04:38;;;;;;;0.25;0.13;;;5.30;99.90;;;;;;5040433;28;20044;-60
2020/12/27 06:07:06;;;;;;;0.38;0.20;;;5.30;99.90;;;;;;5039532;28;20025;-61
2020/12/27 06:09:49;;;;;;;0.30;0.28;;;5.30;99.90;;;;;;5041603;28;20071;-60
2020/12/27 06:12:19;;;;;;;0.40;0.30;;;5.30;99.90;;;;;;5040292;28;20040;-59
2020/12/27 06:15:04;;;;;;;0.20;0.10;;;5.40;99.90;;;;;;5041073;28;20033;-60
2020/12/27 06:18:06;;;;;;;0.20;0.17;;;5.40;99.90;;;;;;5039056;28;20053;-60
2020/12/27 06:20:37;;;;;;;0.60;0.10;;;5.40;99.90;;;;;;5042840;28;20456;-60
2020/12/27 06:23:04;;;;;;;0.30;0.30;;;5.30;99.90;;;;;;5039487;28;20033;-61
2020/12/27 06:25:30;;;;;;;0.22;0.13;;;5.30;99.90;;;;;;5039237;28;20502;-61
2020/12/27 06:27:57;;;;;;;0.43;0.20;;;5.30;99.90;;;;;;5041472;28;20034;-61
2020/12/27 06:30:29;;;;;;;1.75;0.10;;;5.30;99.90;;;;;;5039512;28;20031;-63
2020/12/27 06:33:20;;;;;;;0.30;0.10;;;5.30;99.90;;;;;;5042050;28;20072;-61
2020/12/27 06:35:46;;;;;;;;;;;5.30;99.90;;;;;;5041002;28;20029;-60
2020/12/27 06:38:22;;;;;;;0.77;0.30;;;5.30;99.90;;;;;;5041637;28;20297;-60
2020/12/27 06:40:57;;;;;;;0.30;0.10;;;5.30;99.90;;;;;;5040835;28;20482;-61
2020/12/27 06:43:24;;;;;;;0.45;0.10;;;5.30;99.90;;;;;;5038827;28;20116;-62
2020/12/27 06:45:50;;;;;;;0.40;0.25;;;5.30;99.90;;;;;;5040802;28;20053;-60
2020/12/27 06:48:35;;;;;;;0.10;0.05;;;5.30;99.90;;;;;;5041160;28;20025;-60
2020/12/27 06:51:00;;;;;;;0.15;0.10;;;5.30;99.90;;;;;;5042196;28;20041;-62
2020/12/27 06:53:39;;;;;;;0.28;0.10;;;5.30;99.90;;;;;;5038035;28;20055;-61
2020/12/27 06:56:05;;;;;;;1.80;0.10;;;5.30;99.90;;;;;;5038942;28;20033;-60
2020/12/27 06:58:30;;;;;;;2.60;0.40;;;5.30;99.90;;;;;;5069988;28;20102;-62
2020/12/27 07:01:16;;;;;;;0.38;0.17;;;5.30;99.90;;;;;;5039261;28;20028;-61
2020/12/27 07:03:44;;;;;;;0.15;0.00;;;5.30;99.90;;;;;;5037851;28;20029;-61
2020/12/27 07:06:25;;;;;;;0.38;0.20;;;5.30;99.90;;;;;;5038328;28;20344;-61
2020/12/27 07:08:56;;;;;;;0.15;0.10;;;5.30;99.90;;;;;;5039534;28;20046;-61
2020/12/27 07:11:25;;;;;;;0.10;0.00;;;5.30;99.90;;;;;;5041354;28;20029;-61
2020/12/27 07:13:54;;;;;;;0.68;0.10;;;5.30;99.90;;;;;;5041309;28;20036;-62
2020/12/27 07:16:21;;;;;;;0.47;0.10;;;5.30;99.90;;;;;;5039697;28;20041;-61
2020/12/27 07:18:48;;;;;;;0.00;0.00;;;5.30;99.90;;;;;;5038472;28;20025;-59
2020/12/27 07:21:19;;;;;;;2.65;0.10;;;5.30;99.90;;;;;;5040382;28;20244;-62
2020/12/27 07:23:49;;;;;;;;;;;5.30;99.90;;;;;;5038981;28;20034;-61
2020/12/27 07:26:15;;;;;;;0.15;0.05;;;5.40;99.90;;;;;;5038491;28;19939;-60
2020/12/27 07:28:43;;;;;;;0.20;0.10;;;5.40;99.90;;;;;;5039177;28;20034;-59
2020/12/27 07:31:17;;;;;;;0.20;0.10;;;5.30;99.90;;;;;;5040452;28;20393;-60
2020/12/27 07:33:45;;;;;;;1.30;0.22;;;5.40;99.90;;;;;;5039019;28;20033;-59
2020/12/27 07:36:11;;;;;;;0.10;0.00;;;5.30;99.90;;;;;;5040199;28;20032;-61
2020/12/27 07:38:39;;;;;;;1.05;0.00;;;5.30;99.90;;;;;;5038437;28;20029;-62
2020/12/27 07:41:06;;;;;;;0.20;0.17;;;5.40;99.90;;;;;;5039883;28;20104;-59
2020/12/27 07:43:32;;;;;;;0.55;0.10;;;5.30;99.90;;;;;;5036719;28;20045;-60
2020/12/27 07:46:05;;;;;;;0.10;0.00;;;5.40;99.90;;;;;;5039503;28;20433;-59
2020/12/27 07:48:30;;;;;;;2.08;0.20;;;5.30;99.90;;;;;;5038242;28;20398;-60
2020/12/27 07:50:56;;;;;;;1.75;0.28;;;5.30;99.90;;;;;;5040890;28;20032;-61
2020/12/27 07:53:22;;;;;;;0.35;0.05;;;5.30;99.90;;;;;;5038421;28;20045;-61
2020/12/27 07:55:47;;;;;;;0.65;0.05;;;5.30;99.90;;;;;;5038940;28;20037;-62
2020/12/27 07:58:13;;;;;;;0.43;0.13;;;5.30;99.90;;;;;;5038963;28;20176;-59
2020/12/27 08:00:40;;;;;;;1.20;0.10;;;5.30;99.90;;;;;;5039360;28;20557;-61
2020/12/27 08:03:06;;;;;;;2.28;0.22;;;5.30;99.90;;;;;;5037640;28;20562;-61
2020/12/27 08:05:36;;;;;;;0.10;0.00;;;5.30;99.90;;;;;;5039426;28;20499;-60
2020/12/27 08:08:07;;;;;;;0.22;0.10;;;5.30;99.90;;;;;;5037659;28;20030;-59
2020/12/27 08:10:33;;;;;;;0.00;0.00;;;5.30;99.90;;;;;;5036506;28;20033;-60
2020/12/27 08:13:01;;;;;;;0.20;0.03;;;5.40;99.90;;;;;;5038056;28;20108;-64
2020/12/27 08:15:28;;;;;;;0.15;0.08;;;5.40;99.90;;;;;;5039392;28;20033;-60
2020/12/27 08:17:57;;;;;;;0.20;0.08;;;5.40;99.90;;;;;;5038967;28;20035;-61
2020/12/27 08:20:23;;;;;;;0.10;0.00;;;5.40;99.90;;;;;;5039747;28;20040;-61
2020/12/27 08:23:01;;;;;;;0.38;0.10;;;5.40;99.90;;;;;;5038320;28;20041;-61
2020/12/27 08:25:28;;;;;;;0.80;0.13;;;5.40;99.90;;;;;;5037442;28;20042;-61
2020/12/27 08:27:58;;;;;;;2.65;0.68;;;5.40;99.90;;;;;;5039488;28;20025;-61
2020/12/27 08:30:25;;;;;;;0.30;0.20;;;5.40;99.90;;;;;;5038974;28;20116;-60
2020/12/27 08:33:14;;;;;;;1.10;0.10;;;5.30;99.90;;;;;;5039071;28;20033;-61
2020/12/27 08:35:43;;;;;;;0.10;0.10;;;5.40;99.90;;;;;;5034909;28;20039;-61
2020/12/27 08:38:21;;;;;;;2.22;0.15;;;5.30;99.90;;;;;;5039730;28;20041;-60
2020/12/27 08:41:11;;;;;;;0.45;0.10;;;5.30;99.90;;;;;;5039885;28;20025;-61
2020/12/27 08:43:48;;;;;;;0.03;0.03;;;5.30;99.90;;;;;;5037285;28;20043;-59
2020/12/27 08:46:18;;;;;;;0.10;0.00;;;5.30;99.90;;;;;;5039494;28;20038;-59
2020/12/27 08:48:59;;;;;;;0.00;0.00;;;5.30;99.90;;;;;;5042916;28;20040;-60
2020/12/27 08:51:28;;;;;;;3.13;0.03;;;5.30;99.90;;;;;;5038939;28;20082;-60
2020/12/27 08:53:54;;;;;;;0.20;0.00;;;5.30;99.90;;;;;;5042502;28;20034;-60
2020/12/27 08:56:19;;;;;;;0.50;0.10;;;5.20;99.90;;;;;;5042172;28;20037;-61
2020/12/27 08:58:55;;;;;;;0.05;0.00;;;5.20;99.90;;;;;;5042171;28;20037;-60
2020/12/27 09:01:23;;;;;;;0.25;0.05;;;5.30;99.90;;;;;;5041326;28;20044;-60
2020/12/27 09:03:49;;;;;;;2.20;0.10;;;5.20;99.90;;;;;;5042102;28;20025;-60
2020/12/27 09:06:15;;;;;;;1.23;0.25;;;5.20;99.90;;;;;;5043582;28;20035;-59
2020/12/27 09:08:41;;;;;;;0.20;0.10;;;5.20;99.90;;;;;;5041766;28;20029;-60
2020/12/27 09:11:06;;;;;;;1.75;0.30;;;5.20;99.90;;;;;;5045383;28;20040;-60
2020/12/27 09:13:40;;;;;;;0.43;0.15;;;5.20;99.90;;;;;;5045677;28;20040;-59
2020/12/27 09:16:05;;;;;;;0.30;0.10;;;5.20;99.90;;;;;;5043483;28;20045;-60
2020/12/27 09:18:33;;;;;;;0.05;0.00;;;5.20;99.90;;;;;;5047802;28;20115;-60
2020/12/27 09:20:59;;;;;;;0.08;0.00;;;5.20;99.90;;;;;;5047091;28;20090;-59
2020/12/27 09:23:25;;;;;;;2.70;0.10;;;5.20;99.90;;;;;;5044444;28;20035;-60
2020/12/27 09:26:08;;;;;;;0.60;0.00;;;5.20;99.90;;;;;;5039226;28;20082;-59
2020/12/27 09:28:36;;;;;;;2.42;0.13;;;5.30;99.90;;;;;;5039276;28;20049;-59
2020/12/27 09:31:07;;;;;;;0.10;0.10;;;5.30;99.90;;;;;;5040016;28;20029;-60
2020/12/27 09:33:38;;;;;;;1.85;0.10;;;5.30;99.90;;;;;;5043569;28;20128;-59
2020/12/27 09:36:06;;;;;;;0.20;0.10;;;5.30;99.90;;;;;;5042481;28;20397;-59
2020/12/27 09:38:37;;;;;;;0.40;0.20;;;5.30;99.90;;;;;;5043145;28;20141;-60
2020/12/27 09:41:16;;;;;;;0.08;0.08;;;5.30;99.90;;;;;;5044423;28;20074;-60
2020/12/27 09:43:47;;;;;;;0.43;0.20;;;5.30;99.90;;;;;;5041965;28;20030;-59
2020/12/27 09:46:13;;;;;;;0.20;0.15;;;5.40;99.90;;;;;;5039646;28;20033;-60
2020/12/27 09:48:38;;;;;;;0.73;0.00;;;5.40;99.90;;;;;;5040350;28;20034;-59
2020/12/27 09:51:16;;;;;;;1.95;0.13;;;5.40;99.90;;;;;;5041734;28;20501;-60
2020/12/27 09:53:42;;;;;;;0.20;0.10;;;5.30;99.90;;;;;;5039830;28;20102;-60
2020/12/27 09:56:08;;;;;;;0.32;0.10;;;5.30;99.90;;;;;;5045056;28;20041;-60
2020/12/27 09:58:33;;;;;;;0.40;0.10;;;5.40;99.90;;;;;;5046819;28;20044;-64
2020/12/27 10:00:59;;;;;;;1.90;0.10;;;5.40;99.90;;;;;;5046386;28;20021;-60
2020/12/27 10:03:24;;;;;;;0.40;0.25;;;5.30;99.90;;;;;;5043351;28;20033;-59
2020/12/27 10:05:50;;;;;;;2.65;0.20;;;5.30;99.90;;;;;;5038410;28;20034;-60
2020/12/27 10:08:15;;;;;;;0.90;0.50;;;5.30;99.90;;;;;;5041229;28;20033;-61
2020/12/27 10:10:41;;;;;;;0.22;0.10;;;5.30;99.90;;;;;;5040587;28;20486;-60
2020/12/27 10:13:06;;;;;;;0.00;0.00;;;5.30;99.90;;;;;;5040762;28;20617;-60
2020/12/27 10:15:32;;;;;;;0.15;0.03;;;5.30;99.90;;;;;;5041970;28;20108;-59
2020/12/27 10:17:57;;;;;;;0.10;0.10;;;5.30;99.90;;;;;;5040573;28;20045;-59
2020/12/27 10:20:23;;;;;;;0.63;0.20;;;5.30;99.90;;;;;;5044485;28;20025;-60
2020/12/27 10:22:48;;;;;;;0.30;0.10;;;5.30;99.90;;;;;;5040961;28;20455;-61
2020/12/27 10:25:14;;;;;;;2.38;0.20;;;5.30;99.90;;;;;;5049052;28;20643;-61
2020/12/27 10:27:39;;;;;;;0.17;0.10;;;5.30;99.90;;;;;;5042883;28;20127;-61
2020/12/27 10:30:05;;;;;;;0.70;0.10;;;5.30;99.90;;;;;;5044404;28;20509;-60
2020/12/27 10:32:31;;;;;;;0.45;0.10;;;5.30;99.90;;;;;;5042034;28;20037;-60
2020/12/27 10:34:56;;;;;;;0.60;0.20;;;5.40;99.90;;;;;;5045902;28;20116;-59
2020/12/27 10:37:22;;;;;;;0.82;0.10;;;5.40;99.90;;;;;;5041362;28;20576;-60
2020/12/27 10:39:49;;;;;;;0.60;0.10;;;5.40;99.90;;;;;;5046302;28;20034;-59
2020/12/27 10:42:14;;;;;;;1.20;0.32;;;5.40;99.90;;;;;;5041862;28;20356;-60
2020/12/27 10:44:40;;;;;;;0.50;0.22;;;5.40;99.90;;;;;;5043973;28;20090;-59
2020/12/27 10:47:08;;;;;;;0.43;0.20;;;5.40;99.90;;;;;;5044021;28;20037;-59
2020/12/27 10:49:34;;;;;;;0.22;0.10;;;5.50;99.90;;;;;;5047361;28;20060;-59
2020/12/27 10:51:59;;;;;;;0.03;0.00;;;5.50;99.90;;;;;;5049384;28;20616;-59
2020/12/27 10:54:25;;;;;;;0.20;0.20;;;5.50;99.90;;;;;;5043195;28;20116;-61
2020/12/27 10:56:50;;;;;;;0.38;0.10;;;5.50;99.90;;;;;;5042966;28;20025;-61
2020/12/27 10:59:16;;;;;;;0.35;0.15;;;5.50;99.90;;;;;;5047316;28;20121;-60
2020/12/27 11:01:46;;;;;;;0.65;0.10;;;5.60;99.90;;;;;;5039076;28;20405;-60
2020/12/27 11:04:12;;;;;;;0.25;0.10;;;5.60;99.90;;;;;;5038603;28;20048;-60
2020/12/27 11:06:38;;;;;;;0.38;0.17;;;5.60;99.90;;;;;;5041392;28;20033;-60
2020/12/27 11:09:04;;;;;;;0.70;0.00;;;5.60;99.90;;;;;;5039680;28;20029;-65
2020/12/27 11:11:29;;;;;;;0.35;0.10;;;5.60;99.90;;;;;;5044682;28;20103;-61
2020/12/27 11:13:55;;;;;;;0.08;0.00;;;5.60;99.90;;;;;;5043862;28;20072;-61
2020/12/27 11:16:20;;;;;;;0.15;0.00;;;5.60;99.90;;;;;;5043497;28;20030;-60
2020/12/27 11:18:46;;;;;;;0.75;0.32;;;5.70;99.90;;;;;;5042947;28;20045;-60
2020/12/27 11:21:12;;;;;;;0.15;0.10;;;5.70;99.90;;;;;;5043273;28;20037;-59
2020/12/27 11:23:37;;;;;;;2.83;0.10;;;5.80;99.90;;;;;;5043927;28;20040;-60
2020/12/27 11:26:03;;;;;;;0.20;0.10;;;5.80;99.90;;;;;;5045007;28;20033;-60
2020/12/27 11:28:28;;;;;;;0.20;0.10;;;5.80;99.90;;;;;;5044993;28;20025;-61
2020/12/27 11:30:54;;;;;;;1.27;0.10;;;5.80;99.90;;;;;;5039225;28;20056;-60
2020/12/27 11:33:20;;;;;;;0.77;0.10;;;5.80;99.90;;;;;;5044582;28;20486;-59
2020/12/27 11:35:45;;;;;;;0.73;0.38;;;5.80;99.90;;;;;;5043731;28;20614;-59
2020/12/27 11:38:11;;;;;;;0.15;0.10;;;5.80;99.90;;;;;;5040990;28;20429;-61
2020/12/27 11:40:36;;;;;;;0.52;0.10;;;5.80;99.90;;;;;;5043942;28;20047;-61
2020/12/27 11:43:02;;;;;;;0.20;0.05;;;5.90;99.90;;;;;;5043496;28;20432;-60
2020/12/27 11:45:28;;;;;;;1.85;0.00;;;5.90;99.90;;;;;;5046968;28;20029;-64
2020/12/27 11:47:53;;;;;;;0.10;0.10;;;5.80;99.90;;;;;;5040442;28;20481;-60
2020/12/27 11:50:19;;;;;;;0.30;0.00;;;5.80;99.90;;;;;;5043237;28;20029;-60
2020/12/27 11:52:44;;;;;;;0.40;0.10;;;5.80;99.90;;;;;;5040290;28;20787;-59
2020/12/27 11:55:10;;;;;;;1.85;0.32;;;5.80;99.90;;;;;;5043937;28;20497;-59
2020/12/27 11:57:35;;;;;;;0.17;0.00;;;5.80;99.90;;;;;;5039282;28;20056;-60
2020/12/27 12:00:05;;;;;;;0.00;0.00;;;5.80;99.90;;;;;;5042565;28;20052;-59
2020/12/27 12:02:30;;;;;;;0.00;0.00;;;5.80;99.90;;;;;;5037770;28;20037;-60
2020/12/27 12:04:56;;;;;;;0.10;0.00;;;5.80;99.90;;;;;;5037597;28;20113;-60
2020/12/27 12:07:22;;;;;;;0.35;0.10;;;5.80;99.90;;;;;;5038660;28;20116;-60
2020/12/27 12:09:47;;;;;;;1.85;0.08;;;5.80;99.90;;;;;;5036521;28;20048;-60
2020/12/27 12:12:13;;;;;;;0.57;0.08;;;5.70;99.90;;;;;;5037996;28;20446;-60
2020/12/27 12:14:39;;;;;;;0.30;0.10;;;5.70;99.90;;;;;;5036708;28;20037;-60
2020/12/27 12:17:05;;;;;;;0.55;0.03;;;5.70;99.90;;;;;;5038734;28;20051;-59
2020/12/27 12:19:30;;;;;;;0.77;0.20;;;5.70;99.90;;;;;;5048962;28;20470;-60
2020/12/27 12:21:56;;;;;;;0.90;0.10;;;5.70;99.90;;;;;;5038324;28;20544;-60
2020/12/27 12:24:22;;;;;;;0.63;0.20;;;5.70;99.90;;;;;;5036835;28;20057;-59
2020/12/27 12:26:49;;;;;;;0.50;0.20;;;5.70;99.90;;;;;;5037893;28;20167;-60
2020/12/27 12:29:15;;;;;;;0.20;0.10;;;5.70;99.90;;;;;;5036095;28;20553;-60
2020/12/27 12:31:40;;;;;;;0.45;0.13;;;5.70;99.90;;;;;;5039170;28;20421;-60
2020/12/27 12:34:07;;;;;;;0.20;0.10;;;5.70;99.90;;;;;;5036798;28;20045;-61
2020/12/27 12:36:33;;;;;;;1.88;0.10;;;5.70;99.90;;;;;;5038878;28;20029;-64
2020/12/27 12:38:59;;;;;;;1.38;0.25;;;5.70;99.90;;;;;;5035530;28;20044;-59
2020/12/27 12:41:30;;;;;;;0.85;0.20;;;5.70;99.90;;;;;;5036604;28;20033;-62
2020/12/27 12:43:56;;;;;;;0.32;0.10;;;5.70;99.90;;;;;;5036252;28;20037;-59
2020/12/27 12:46:22;;;;;;;0.40;0.10;;;5.70;99.90;;;;;;5036855;28;20051;-60
2020/12/27 12:48:49;;;;;;;2.05;0.20;;;5.70;99.90;;;;;;5038189;28;20032;-60
2020/12/27 12:51:15;;;;;;;0.88;0.10;;;5.70;99.90;;;;;;5033718;28;20053;-61
2020/12/27 12:53:40;;;;;;;1.55;0.47;;;5.70;99.90;;;;;;5037250;28;20029;-59
2020/12/27 12:56:10;;;;;;;0.93;0.08;;;5.70;99.90;;;;;;5038545;28;20656;-60